createdAt,value
2023-02-11T00:00:12.124Z,102886.97
2023-02-11T00:02:38.686Z,102892.69
2023-02-11T00:05:05.461Z,102892.91
2023-02-11T00:07:33.181Z,102894.78
2023-02-11T00:09:59.744Z,102892.94
2023-02-11T00:12:26.240Z,102890.41
2023-02-11T00:14:52.777Z,102878.09
2023-02-11T00:17:19.465Z,102894.88
2023-02-11T00:19:49.824Z,102884.06
2023-02-11T00:22:16.330Z,102885.22
2023-02-11T00:24:42.802Z,102869.44
2023-02-11T00:27:09.279Z,102874.03
2023-02-11T00:29:37.479Z,102865.94
2023-02-11T00:32:05.290Z,102868.25
2023-02-11T00:34:32.884Z,102865.44
2023-02-11T00:36:59.520Z,102879.88
2023-02-11T00:39:25.983Z,102868.63
2023-02-11T00:41:52.425Z,102857.75
2023-02-11T00:44:18.923Z,102840.94
2023-02-11T00:46:45.452Z,102836.06
2023-02-11T00:49:11.993Z,102826.09
2023-02-11T00:51:38.424Z,102822.13
2023-02-11T00:54:05.205Z,102816.31
2023-02-11T00:56:31.715Z,102809.97
2023-02-11T00:58:58.410Z,102808.56
2023-02-11T01:01:24.967Z,102816.13
2023-02-11T01:03:51.421Z,102797.06
2023-02-11T01:06:18.004Z,102796.78
2023-02-11T01:08:44.479Z,102804.56
2023-02-11T01:11:15.477Z,102815.34
2023-02-11T01:13:42.686Z,102800.28
2023-02-11T01:16:10.462Z,102814.44
2023-02-11T01:18:37.121Z,102823.31
2023-02-11T01:21:03.893Z,102829.47
2023-02-11T01:23:30.381Z,102840.66
2023-02-11T01:25:57.028Z,102825.50
2023-02-11T01:28:25.530Z,102822.69
2023-02-11T01:30:52.768Z,102817.91
2023-02-11T01:33:19.515Z,102824.09
2023-02-11T01:35:46.191Z,102826.69
2023-02-11T01:38:18.238Z,102823.31
2023-02-11T01:40:49.915Z,102822.69
2023-02-11T01:43:16.525Z,102835.16
2023-02-11T01:46:00.050Z,102828.63
2023-02-11T01:48:30.859Z,102834.50
2023-02-11T01:51:01.781Z,102833.63
2023-02-11T01:53:52.840Z,102820.88
2023-02-11T01:56:39.006Z,102811.31
2023-02-11T01:59:13.688Z,102819.16
2023-02-11T02:01:40.807Z,102818.53
2023-02-11T02:04:08.432Z,102820.97
2023-02-11T02:06:41.016Z,102830.72
2023-02-11T02:09:17.767Z,102817.34
2023-02-11T02:11:44.288Z,102817.16
2023-02-11T02:14:10.846Z,102805.69
2023-02-11T02:16:37.806Z,102809.28
2023-02-11T02:19:39.875Z,102796.69
2023-02-11T02:22:41.829Z,102785.50
2023-02-11T02:25:37.484Z,102783.22
2023-02-11T02:28:37.293Z,102779.78
2023-02-11T02:31:25.036Z,102774.34
2023-02-11T02:34:19.936Z,102774.41
2023-02-11T02:36:56.684Z,102770.44
2023-02-11T02:39:29.378Z,102761.72
2023-02-11T02:41:56.675Z,102761.25
2023-02-11T02:44:23.681Z,102749.94
2023-02-11T02:46:50.322Z,102758.94
2023-02-11T02:49:17.204Z,102759.75
2023-02-11T02:51:55.772Z,102758.75
2023-02-11T02:54:29.567Z,102755.47
2023-02-11T02:57:14.932Z,102756.41
2023-02-11T02:59:57.920Z,102746.56
2023-02-11T03:02:35.316Z,102739.16
2023-02-11T03:05:29.214Z,102730.63
2023-02-11T03:08:22.465Z,102725.84
2023-02-11T03:10:51.363Z,102737.28
2023-02-11T03:13:19.642Z,102735.91
2023-02-11T03:15:50.506Z,102740.34
2023-02-11T03:18:19.433Z,102732.06
2023-02-11T03:20:49.505Z,102726.75
2023-02-11T03:23:19.738Z,102734.25
2023-02-11T03:25:52.308Z,102723.13
2023-02-11T03:28:34.795Z,102718.06
2023-02-11T03:31:22.897Z,102737.19
2023-02-11T03:33:55.608Z,102727.44
2023-02-11T03:36:56.976Z,102738.41
2023-02-11T03:39:27.255Z,102741.88
2023-02-11T03:41:55.816Z,102740.72
2023-02-11T03:44:22.993Z,102746.47
2023-02-11T03:46:51.578Z,102726.97
2023-02-11T03:49:20.329Z,102733.28
2023-02-11T03:51:47.994Z,102733.31
2023-02-11T03:54:18.043Z,102730.03
2023-02-11T03:56:52.153Z,102726.66
2023-02-11T03:59:19.026Z,102721.88
2023-02-11T04:01:45.458Z,102721.25
2023-02-11T04:04:11.926Z,102735.63
2023-02-11T04:06:38.604Z,102733.06
2023-02-11T04:09:05.175Z,102724.28
2023-02-11T04:11:31.887Z,102730.31
2023-02-11T04:13:58.420Z,102727.13
2023-02-11T04:16:25.074Z,102724.28
2023-02-11T04:18:51.509Z,102735.75
2023-02-11T04:21:17.947Z,102733.06
2023-02-11T04:23:44.445Z,102730.63
2023-02-11T04:26:10.976Z,102750.81
2023-02-11T04:28:37.444Z,102739.47
2023-02-11T04:31:03.984Z,102744.41
2023-02-11T04:33:30.619Z,102738.22
2023-02-11T04:35:57.029Z,102737.81
2023-02-11T04:38:26.255Z,102738.88
2023-02-11T04:40:52.750Z,102730.91
2023-02-11T04:43:19.152Z,102730.66
2023-02-11T04:45:45.570Z,102736.72
2023-02-11T04:48:12.037Z,102725.81
2023-02-11T04:50:39.748Z,102730.63
2023-02-11T04:53:06.204Z,102728.59
2023-02-11T04:55:32.674Z,102736.81
2023-02-11T04:57:59.243Z,102740.94
2023-02-11T05:00:25.663Z,102734.44
2023-02-11T05:02:52.204Z,102725.94
2023-02-11T05:05:18.612Z,102735.25
2023-02-11T05:07:45.047Z,102732.97
2023-02-11T05:10:11.691Z,102724.88
2023-02-11T05:12:38.127Z,102716.44
2023-02-11T05:15:05.221Z,102718.88
2023-02-11T05:17:31.915Z,102712.91
2023-02-11T05:19:58.338Z,102720.38
2023-02-11T05:22:24.778Z,102719.28
2023-02-11T05:24:51.308Z,102722.59
2023-02-11T05:27:17.733Z,102703.72
2023-02-11T05:29:44.174Z,102723.03
2023-02-11T05:32:10.651Z,102731.47
2023-02-11T05:34:37.068Z,102726.97
2023-02-11T05:37:03.665Z,102729.09
2023-02-11T05:39:30.321Z,102735.28
2023-02-11T05:41:56.742Z,102733.66
2023-02-11T05:44:23.295Z,102730.03
2023-02-11T05:46:49.747Z,102726.13
2023-02-11T05:49:17.232Z,102731.47
2023-02-11T05:51:43.806Z,102738.97
2023-02-11T05:54:10.869Z,102725.28
2023-02-11T05:56:37.288Z,102724.59
2023-02-11T05:59:03.794Z,102723.91
2023-02-11T06:01:30.224Z,102714.59
2023-02-11T06:03:56.744Z,102712.78
2023-02-11T06:06:23.229Z,102716.91
2023-02-11T06:08:49.660Z,102725.44
2023-02-11T06:11:17.020Z,102727.94
2023-02-11T06:13:43.666Z,102727.56
2023-02-11T06:16:10.157Z,102737.47
2023-02-11T06:18:36.686Z,102728.63
2023-02-11T06:21:06.876Z,102735.81
2023-02-11T06:23:33.290Z,102728.16
2023-02-11T06:26:04.137Z,102726.69
2023-02-11T06:28:34.613Z,102735.56
2023-02-11T06:31:07.661Z,102723.16
2023-02-11T06:33:34.453Z,102731.75
2023-02-11T06:36:01.295Z,102718.22
2023-02-11T06:38:27.936Z,102724.78
2023-02-11T06:40:54.374Z,102724.06
2023-02-11T06:43:20.991Z,102718.06
2023-02-11T06:45:55.792Z,102724.91
2023-02-11T06:48:23.709Z,102727.97
2023-02-11T06:50:50.238Z,102725.09
2023-02-11T06:53:16.825Z,102730.41
2023-02-11T06:55:43.277Z,102728.44
2023-02-11T06:58:09.720Z,102738.22
2023-02-11T07:00:37.533Z,102726.81
2023-02-11T07:03:04.345Z,102727.81
2023-02-11T07:05:30.785Z,102726.91
2023-02-11T07:07:57.374Z,102719.22
2023-02-11T07:10:23.861Z,102725.28
2023-02-11T07:12:50.247Z,102721.88
2023-02-11T07:15:16.646Z,102716.69
2023-02-11T07:17:43.110Z,102728.97
2023-02-11T07:20:12.434Z,102716.94
2023-02-11T07:22:38.986Z,102724.56
2023-02-11T07:25:05.904Z,102727.25
2023-02-11T07:27:32.336Z,102737.91
2023-02-11T07:29:58.766Z,102742.00
2023-02-11T07:32:25.176Z,102745.94
2023-02-11T07:34:51.728Z,102756.31
2023-02-11T07:37:18.714Z,102759.41
2023-02-11T07:39:45.140Z,102766.19
2023-02-11T07:42:11.608Z,102768.88
2023-02-11T07:44:38.068Z,102769.13
2023-02-11T07:47:04.610Z,102770.84
2023-02-11T07:49:31.245Z,102779.00
2023-02-11T07:51:57.751Z,102783.59
2023-02-11T07:54:24.183Z,102790.47
2023-02-11T07:56:50.827Z,102784.19
2023-02-11T07:59:17.292Z,102790.41
2023-02-11T08:01:43.779Z,102795.16
2023-02-11T08:04:10.392Z,102792.91
2023-02-11T08:06:41.361Z,102793.00
2023-02-11T08:09:09.542Z,102790.97
2023-02-11T08:11:36.104Z,102790.44
2023-02-11T08:14:02.538Z,102794.25
2023-02-11T08:16:34.001Z,102805.38
2023-02-11T08:19:03.681Z,102801.72
2023-02-11T08:21:30.274Z,102806.31
2023-02-11T08:23:57.376Z,102829.09
2023-02-11T08:26:26.203Z,102819.94
2023-02-11T08:28:54.010Z,102823.81
2023-02-11T08:31:23.631Z,102825.72
2023-02-11T08:33:50.464Z,102826.75
2023-02-11T08:36:21.017Z,102831.00
2023-02-11T08:38:47.742Z,102843.84
2023-02-11T08:41:16.008Z,102840.97
2023-02-11T08:43:43.894Z,102846.97
2023-02-11T08:46:14.032Z,102851.69
2023-02-11T08:48:40.853Z,102853.00
2023-02-11T08:51:17.244Z,102852.91
2023-02-11T08:53:43.836Z,102848.09
2023-02-11T08:56:13.352Z,102852.09
2023-02-11T08:58:40.406Z,102851.31
2023-02-11T09:01:11.741Z,102844.00
2023-02-11T09:03:38.403Z,102852.50
2023-02-11T09:06:06.871Z,102858.19
2023-02-11T09:08:37.334Z,102853.25
2023-02-11T09:11:04.129Z,102847.56
2023-02-11T09:13:31.764Z,102857.75
2023-02-11T09:15:59.268Z,102858.06
2023-02-11T09:18:25.828Z,102856.38
2023-02-11T09:20:52.714Z,102859.81
2023-02-11T09:23:19.284Z,102865.97
2023-02-11T09:25:45.844Z,102869.56
2023-02-11T09:28:12.392Z,102865.59
2023-02-11T09:30:39.111Z,102873.88
2023-02-11T09:33:06.050Z,102873.34
2023-02-11T09:35:33.224Z,102885.78
2023-02-11T09:37:59.642Z,102892.66
2023-02-11T09:40:26.285Z,102901.75
2023-02-11T09:43:09.979Z,102905.94
2023-02-11T09:45:36.516Z,102905.72
2023-02-11T09:48:06.500Z,102898.81
2023-02-11T09:50:40.168Z,102890.09
2023-02-11T09:53:21.828Z,102908.88
2023-02-11T09:55:55.633Z,102905.06
2023-02-11T09:58:29.259Z,102915.28
2023-02-11T10:01:03.226Z,102902.53
2023-02-11T10:03:48.558Z,102915.13
2023-02-11T10:06:36.893Z,102903.31
2023-02-11T10:09:32.096Z,102894.19
2023-02-11T10:12:12.441Z,102906.56
2023-02-11T10:15:02.728Z,102900.84
2023-02-11T10:17:50.576Z,102914.22
2023-02-11T10:20:37.052Z,102921.69
2023-02-11T10:23:17.100Z,102919.25
2023-02-11T10:25:45.444Z,102902.69
2023-02-11T10:28:18.236Z,102900.84
2023-02-11T10:31:11.854Z,102902.06
2023-02-11T10:33:56.355Z,102913.50
2023-02-11T10:36:26.438Z,102939.84
2023-02-11T10:38:52.982Z,102944.22
2023-02-11T10:41:24.416Z,102955.03
2023-02-11T10:43:51.030Z,102954.78
2023-02-11T10:46:19.769Z,102937.75
2023-02-11T10:48:52.831Z,102939.28
2023-02-11T10:51:23.677Z,102937.94
2023-02-11T10:54:13.857Z,102930.69
2023-02-11T10:56:50.189Z,102937.31
2023-02-11T10:59:23.761Z,102951.97
2023-02-11T11:01:53.513Z,102952.59
2023-02-11T11:04:26.087Z,102953.38
2023-02-11T11:06:52.700Z,102952.66
2023-02-11T11:09:32.828Z,102946.50
2023-02-11T11:11:59.224Z,102936.69
2023-02-11T11:14:29.675Z,102943.75
2023-02-11T11:16:56.126Z,102942.88
2023-02-11T11:19:24.364Z,102934.94
2023-02-11T11:21:55.346Z,102940.56
2023-02-11T11:24:22.879Z,102950.16
2023-02-11T11:26:53.520Z,102955.50
2023-02-11T11:29:24.270Z,102964.59
2023-02-11T11:31:54.327Z,102970.44
2023-02-11T11:34:29.066Z,102978.41
2023-02-11T11:36:57.150Z,102979.16
2023-02-11T11:39:30.064Z,102981.97
2023-02-11T11:42:05.480Z,102980.03
2023-02-11T11:44:36.629Z,102965.63
2023-02-11T11:47:20.718Z,102964.00
2023-02-11T11:49:56.874Z,102968.16
2023-02-11T11:52:32.248Z,102964.78
2023-02-11T11:55:05.273Z,102959.25
2023-02-11T11:57:36.232Z,102956.88
2023-02-11T12:00:03.935Z,102964.72
2023-02-11T12:02:55.376Z,102960.13
2023-02-11T12:05:36.483Z,102960.66
2023-02-11T12:08:27.559Z,102950.97
2023-02-11T12:11:06.098Z,102955.47
2023-02-11T12:13:39.436Z,102956.94
2023-02-11T12:16:45.398Z,102947.13
2023-02-11T12:19:15.087Z,102949.38
2023-02-11T12:21:45.642Z,102947.13
2023-02-11T12:24:23.816Z,102940.41
2023-02-11T12:27:07.663Z,102950.91
2023-02-11T12:30:21.815Z,102949.00
2023-02-11T12:33:00.789Z,102952.72
2023-02-11T12:36:04.763Z,102958.66
2023-02-11T12:38:46.873Z,102960.28
2023-02-11T12:42:03.991Z,102952.28
2023-02-11T12:44:46.211Z,102947.47
2023-02-11T12:47:51.630Z,102949.13
2023-02-11T12:50:28.149Z,102945.91
2023-02-11T12:53:09.942Z,102950.63
2023-02-11T12:55:43.631Z,102940.28
2023-02-11T12:58:29.643Z,102943.06
2023-02-11T13:01:06.889Z,102942.16
2023-02-11T13:03:40.925Z,102936.97
2023-02-11T13:06:10.899Z,102944.25
2023-02-11T13:08:46.311Z,102944.53
2023-02-11T13:11:16.703Z,102947.34
2023-02-11T13:13:46.298Z,102952.19
2023-02-11T13:16:40.847Z,102955.09
2023-02-11T13:19:13.652Z,102964.44
2023-02-11T13:22:04.868Z,102964.41
2023-02-11T13:24:57.261Z,102960.78
2023-02-11T13:27:36.938Z,102962.75
2023-02-11T13:30:24.406Z,102966.94
2023-02-11T13:32:53.776Z,102964.81
2023-02-11T13:35:34.872Z,102951.25
2023-02-11T13:38:16.713Z,102967.97
2023-02-11T13:40:44.078Z,102972.91
2023-02-11T13:43:25.534Z,102980.34
2023-02-11T13:45:52.439Z,102974.22
2023-02-11T13:48:24.618Z,102971.63
2023-02-11T13:50:53.893Z,102977.94
2023-02-11T13:53:21.291Z,102973.91
2023-02-11T13:55:50.138Z,102965.91
2023-02-11T13:58:28.835Z,102980.19
2023-02-11T14:00:55.744Z,102971.78
2023-02-11T14:03:46.902Z,102985.34
2023-02-11T14:06:40.639Z,102985.75
2023-02-11T14:09:30.070Z,102988.63
2023-02-11T14:12:22.924Z,102998.03
2023-02-11T14:15:22.105Z,102983.47
2023-02-11T14:17:48.566Z,102992.06
2023-02-11T14:20:36.953Z,102990.53
2023-02-11T14:23:04.899Z,102989.13
2023-02-11T14:25:32.023Z,103001.34
2023-02-11T14:28:23.383Z,102992.75
2023-02-11T14:31:10.679Z,102995.94
2023-02-11T14:33:52.217Z,102988.34
2023-02-11T14:36:52.406Z,102996.81
2023-02-11T14:39:18.758Z,103004.78
2023-02-11T14:41:47.671Z,103016.22
2023-02-11T14:44:20.029Z,103012.31
2023-02-11T14:46:50.402Z,103009.25
2023-02-11T14:49:25.046Z,103006.03
2023-02-11T14:51:53.530Z,103010.84
2023-02-11T14:54:25.392Z,103016.38
2023-02-11T14:57:14.736Z,103012.75
2023-02-11T14:59:59.860Z,103015.75
2023-02-11T15:02:34.050Z,103010.91
2023-02-11T15:05:33.096Z,103018.22
2023-02-11T15:08:03.197Z,103015.13
2023-02-11T15:10:36.101Z,103020.69
2023-02-11T15:13:03.923Z,103021.34
2023-02-11T15:15:31.879Z,103025.50
2023-02-11T15:18:01.483Z,103025.41
2023-02-11T15:20:31.753Z,103032.47
2023-02-11T15:23:07.917Z,103034.34
2023-02-11T15:25:36.141Z,103042.31
2023-02-11T15:28:16.621Z,103044.72
2023-02-11T15:30:43.403Z,103045.28
2023-02-11T15:33:22.285Z,103043.19
2023-02-11T15:35:48.914Z,103041.97
2023-02-11T15:38:15.500Z,103034.91
2023-02-11T15:40:52.673Z,103038.66
2023-02-11T15:43:19.438Z,103050.47
2023-02-11T15:45:56.424Z,103043.75
2023-02-11T15:48:26.793Z,103048.00
2023-02-11T15:51:05.001Z,103045.22
2023-02-11T15:53:38.135Z,103046.59
2023-02-11T15:56:12.613Z,103048.84
2023-02-11T15:58:40.581Z,103050.94
2023-02-11T16:01:07.892Z,103048.09
2023-02-11T16:03:34.538Z,103056.56
2023-02-11T16:06:35.110Z,103059.88
2023-02-11T16:09:06.175Z,103050.28
2023-02-11T16:11:34.850Z,103067.31
2023-02-11T16:14:05.823Z,103061.66
2023-02-11T16:16:34.300Z,103050.66
2023-02-11T16:19:06.359Z,103060.25
2023-02-11T16:21:39.146Z,103075.09
2023-02-11T16:24:07.416Z,103068.44
2023-02-11T16:26:36.865Z,103073.53
2023-02-11T16:29:14.690Z,103068.56
2023-02-11T16:31:43.767Z,103069.94
2023-02-11T16:34:18.643Z,103072.69
2023-02-11T16:36:46.193Z,103072.53
2023-02-11T16:39:12.934Z,103077.09
2023-02-11T16:41:39.499Z,103072.16
2023-02-11T16:44:06.120Z,103083.22
2023-02-11T16:46:33.271Z,103084.75
2023-02-11T16:49:09.097Z,103083.31
2023-02-11T16:51:38.951Z,103081.50
2023-02-11T16:54:05.767Z,103080.81
2023-02-11T16:56:32.271Z,103086.16
2023-02-11T16:58:58.884Z,103085.09
2023-02-11T17:01:25.395Z,103086.16
2023-02-11T17:03:52.944Z,103081.88
2023-02-11T17:06:19.568Z,103086.22
2023-02-11T17:08:46.178Z,103082.38
2023-02-11T17:11:17.318Z,103081.88
2023-02-11T17:13:46.108Z,103089.63
2023-02-11T17:16:18.121Z,103089.34
2023-02-11T17:18:44.911Z,103097.97
2023-02-11T17:21:11.584Z,103102.41
2023-02-11T17:23:38.217Z,103099.84
2023-02-11T17:26:05.133Z,103106.00
2023-02-11T17:28:32.433Z,103115.34
2023-02-11T17:30:59.645Z,103115.88
2023-02-11T17:33:26.628Z,103113.94
2023-02-11T17:35:53.389Z,103113.06
2023-02-11T17:38:20.391Z,103119.06
2023-02-11T17:40:46.818Z,103123.78
2023-02-11T17:43:13.342Z,103135.94
2023-02-11T17:45:42.949Z,103136.06
2023-02-11T17:48:09.566Z,103144.84
2023-02-11T17:50:36.922Z,103147.41
2023-02-11T17:53:03.364Z,103136.84
2023-02-11T17:55:33.102Z,103148.56
2023-02-11T17:57:59.940Z,103149.78
2023-02-11T18:00:28.211Z,103142.28
2023-02-11T18:02:57.526Z,103147.19
2023-02-11T18:05:26.616Z,103150.78
2023-02-11T18:07:54.942Z,103164.47
2023-02-11T18:10:21.875Z,103165.31
2023-02-11T18:12:48.745Z,103159.78
2023-02-11T18:15:15.941Z,103161.94
2023-02-11T18:17:42.693Z,103171.03
2023-02-11T18:20:09.547Z,103172.34
2023-02-11T18:22:39.363Z,103179.28
2023-02-11T18:25:07.386Z,103181.72
2023-02-11T18:27:33.989Z,103189.88
2023-02-11T18:30:00.533Z,103186.72
2023-02-11T18:32:27.137Z,103189.59
2023-02-11T18:34:53.561Z,103195.84
2023-02-11T18:37:20.117Z,103192.94
2023-02-11T18:39:46.559Z,103202.59
2023-02-11T18:42:13.012Z,103205.63
2023-02-11T18:44:39.549Z,103198.94
2023-02-11T18:47:05.976Z,103203.25
2023-02-11T18:49:33.030Z,103196.78
2023-02-11T18:51:59.528Z,103202.63
2023-02-11T18:54:26.028Z,103209.56
2023-02-11T18:56:53.033Z,103210.03
2023-02-11T18:59:19.571Z,103200.84
2023-02-11T19:01:46.988Z,103212.41
2023-02-11T19:04:18.899Z,103217.09
2023-02-11T19:06:47.782Z,103219.38
2023-02-11T19:09:16.382Z,103229.06
2023-02-11T19:11:53.944Z,103240.06
2023-02-11T19:14:26.663Z,103240.66
2023-02-11T19:16:55.578Z,103245.59
2023-02-11T19:19:24.346Z,103240.44
2023-02-11T19:21:50.841Z,103238.41
2023-02-11T19:24:19.876Z,103240.06
2023-02-11T19:26:47.633Z,103247.22
2023-02-11T19:29:14.160Z,103249.22
2023-02-11T19:31:41.226Z,103248.59
2023-02-11T19:34:08.273Z,103250.25
2023-02-11T19:36:34.782Z,103247.88
2023-02-11T19:39:02.340Z,103245.56
2023-02-11T19:41:29.682Z,103248.22
2023-02-11T19:43:57.012Z,103250.75
2023-02-11T19:46:25.249Z,103249.75
2023-02-11T19:48:52.094Z,103249.56
2023-02-11T19:51:19.520Z,103261.03
2023-02-11T19:53:46.412Z,103256.22
2023-02-11T19:56:13.386Z,103257.53
2023-02-11T19:58:40.764Z,103270.22
2023-02-11T20:01:12.868Z,103273.84
2023-02-11T20:03:42.167Z,103278.00
2023-02-11T20:06:12.108Z,103281.94
2023-02-11T20:08:38.678Z,103274.88
2023-02-11T20:11:06.476Z,103282.16
2023-02-11T20:13:34.140Z,103284.50
2023-02-11T20:16:09.243Z,103283.16
2023-02-11T20:18:36.819Z,103285.19
2023-02-11T20:21:11.660Z,103283.00
2023-02-11T20:23:40.194Z,103288.72
2023-02-11T20:26:07.588Z,103286.16
2023-02-11T20:28:35.303Z,103288.59
2023-02-11T20:31:02.181Z,103289.91
2023-02-11T20:33:29.961Z,103294.78
2023-02-11T20:36:01.651Z,103299.25
2023-02-11T20:38:28.201Z,103296.69
2023-02-11T20:40:55.082Z,103302.38
2023-02-11T20:43:22.114Z,103305.38
2023-02-11T20:45:49.058Z,103302.50
2023-02-11T20:48:15.513Z,103295.72
2023-02-11T20:50:41.897Z,103302.09
2023-02-11T20:53:08.380Z,103293.16
2023-02-11T20:55:37.796Z,103294.47
2023-02-11T20:58:05.707Z,103299.91
2023-02-11T21:00:33.677Z,103303.03
2023-02-11T21:03:00.320Z,103303.34
2023-02-11T21:05:26.900Z,103313.66
2023-02-11T21:07:53.806Z,103308.72
2023-02-11T21:10:20.452Z,103306.22
2023-02-11T21:12:49.755Z,103304.38
2023-02-11T21:15:16.633Z,103307.84
2023-02-11T21:17:43.067Z,103313.72
2023-02-11T21:20:10.141Z,103316.19
2023-02-11T21:22:36.785Z,103324.09
2023-02-11T21:25:03.282Z,103331.84
2023-02-11T21:27:33.071Z,103327.25
2023-02-11T21:30:00.760Z,103330.91
2023-02-11T21:32:27.590Z,103338.22
2023-02-11T21:34:54.159Z,103332.59
2023-02-11T21:37:21.441Z,103340.13
2023-02-11T21:39:48.178Z,103342.00
2023-02-11T21:42:14.680Z,103339.78
2023-02-11T21:44:41.136Z,103343.88
2023-02-11T21:47:07.573Z,103343.84
2023-02-11T21:49:34.032Z,103344.63
2023-02-11T21:52:00.697Z,103342.59
2023-02-11T21:54:31.956Z,103345.81
2023-02-11T21:56:59.669Z,103345.56
2023-02-11T21:59:26.160Z,103344.81
2023-02-11T22:01:52.581Z,103348.81
2023-02-11T22:04:19.254Z,103348.78
2023-02-11T22:06:45.798Z,103354.59
2023-02-11T22:09:12.415Z,103362.75
2023-02-11T22:11:39.200Z,103371.75
2023-02-11T22:14:05.854Z,103376.00
2023-02-11T22:16:33.505Z,103365.91
2023-02-11T22:19:02.333Z,103376.00
2023-02-11T22:21:29.281Z,103372.66
2023-02-11T22:23:56.208Z,103383.22
2023-02-11T22:26:24.710Z,103383.56
2023-02-11T22:28:51.870Z,103381.59
2023-02-11T22:31:21.947Z,103382.88
2023-02-11T22:33:48.601Z,103377.63
2023-02-11T22:36:27.242Z,103383.94
2023-02-11T22:38:54.828Z,103380.41
2023-02-11T22:41:22.378Z,103382.81
2023-02-11T22:43:49.561Z,103392.28
2023-02-11T22:46:18.112Z,103397.56
2023-02-11T22:48:44.985Z,103394.75
2023-02-11T22:51:13.974Z,103401.22
2023-02-11T22:53:40.627Z,103402.22
2023-02-11T22:56:09.144Z,103414.88
2023-02-11T22:58:36.521Z,103419.38
2023-02-11T23:01:04.605Z,103415.41
2023-02-11T23:03:31.783Z,103421.28
2023-02-11T23:06:00.139Z,103421.06
2023-02-11T23:08:27.751Z,103422.59
2023-02-11T23:10:54.208Z,103425.94
2023-02-11T23:13:20.969Z,103424.38
2023-02-11T23:15:47.618Z,103432.47
2023-02-11T23:18:15.359Z,103428.56
2023-02-11T23:20:43.356Z,103438.63
2023-02-11T23:23:09.863Z,103438.63
2023-02-11T23:25:42.490Z,103447.75
2023-02-11T23:28:09.380Z,103442.22
2023-02-11T23:30:35.893Z,103445.44
2023-02-11T23:33:02.343Z,103441.81
2023-02-11T23:35:28.937Z,103443.09
2023-02-11T23:37:55.669Z,103454.28
2023-02-11T23:40:22.401Z,103451.31
2023-02-11T23:42:49.229Z,103453.13
2023-02-11T23:45:16.067Z,103454.81
2023-02-11T23:47:42.732Z,103448.19
2023-02-11T23:50:09.652Z,103454.75
2023-02-11T23:52:36.196Z,103453.53
2023-02-11T23:55:02.720Z,103464.25
2023-02-11T23:57:31.432Z,103467.97
2023-02-11T23:59:58.022Z,103456.69
